createdAt,value
2023-01-13T00:00:43.453Z,96149
2023-01-13T00:01:43.443Z,96141
2023-01-13T00:02:43.534Z,96141
2023-01-13T00:03:43.450Z,96142
2023-01-13T00:04:43.533Z,96143
2023-01-13T00:05:43.465Z,96140
2023-01-13T00:06:43.456Z,96126
2023-01-13T00:07:43.469Z,96126
2023-01-13T00:08:43.472Z,96126
2023-01-13T00:09:43.490Z,96126
2023-01-13T00:10:43.459Z,96130
2023-01-13T00:11:43.487Z,96113
2023-01-13T00:12:43.492Z,96113
2023-01-13T00:13:43.604Z,96099
2023-01-13T00:14:43.504Z,96099
2023-01-13T00:15:43.508Z,96096
2023-01-13T00:16:43.478Z,96091
2023-01-13T00:17:43.496Z,96086
2023-01-13T00:18:43.481Z,96086
2023-01-13T00:19:43.481Z,96071
2023-01-13T00:20:43.496Z,96073
2023-01-13T00:21:43.471Z,96073
2023-01-13T00:22:43.535Z,96068
2023-01-13T00:23:43.519Z,96071
2023-01-13T00:24:43.500Z,96071
2023-01-13T00:25:43.503Z,96070
2023-01-13T00:26:43.517Z,96070
2023-01-13T00:27:43.545Z,96073
2023-01-13T00:28:43.514Z,96072
2023-01-13T00:29:43.525Z,96065
2023-01-13T00:30:43.558Z,96068
2023-01-13T00:31:43.517Z,96068
2023-01-13T00:32:43.513Z,96071
2023-01-13T00:33:43.536Z,96071
2023-01-13T00:34:43.538Z,96076
2023-01-13T00:35:43.580Z,96074
2023-01-13T00:36:43.542Z,96071
2023-01-13T00:37:43.529Z,96071
2023-01-13T00:38:43.549Z,96070
2023-01-13T00:39:43.529Z,96072
2023-01-13T00:40:43.531Z,96081
2023-01-13T00:41:43.547Z,96078
2023-01-13T00:42:43.534Z,96082
2023-01-13T00:43:43.594Z,96082
2023-01-13T00:44:43.533Z,96082
2023-01-13T00:45:43.557Z,96085
2023-01-13T00:46:43.593Z,96081
2023-01-13T00:47:43.572Z,96081
2023-01-13T00:48:43.606Z,96081
2023-01-13T00:49:43.598Z,96088
2023-01-13T00:50:43.575Z,96088
2023-01-13T00:51:43.601Z,96083
2023-01-13T00:52:43.561Z,96088
2023-01-13T00:53:43.580Z,96091
2023-01-13T00:54:43.579Z,96084
2023-01-13T00:55:43.585Z,96090
2023-01-13T00:56:43.628Z,96078
2023-01-13T00:57:43.598Z,96074
2023-01-13T00:58:43.585Z,96070
2023-01-13T00:59:43.579Z,96070
2023-01-13T01:00:43.595Z,96071
2023-01-13T01:01:43.781Z,96066
2023-01-13T01:02:43.628Z,96061
2023-01-13T01:04:43.642Z,96079
2023-01-13T01:05:43.592Z,96079
2023-01-13T01:06:43.615Z,96077
2023-01-13T01:07:43.600Z,96079
2023-01-13T01:08:43.604Z,96078
2023-01-13T01:09:43.614Z,96078
2023-01-13T01:10:43.601Z,96078
2023-01-13T01:11:43.608Z,96076
2023-01-13T01:12:43.665Z,96078
2023-01-13T01:14:43.641Z,96074
2023-01-13T01:15:43.680Z,96074
2023-01-13T01:16:43.625Z,96060
2023-01-13T01:17:43.669Z,96080
2023-01-13T01:18:43.636Z,96080
2023-01-13T01:19:43.631Z,96080
2023-01-13T01:21:43.635Z,96080
2023-01-13T01:22:43.648Z,96086
2023-01-13T01:23:43.645Z,96094
2023-01-13T01:24:43.648Z,96090
2023-01-13T01:25:43.685Z,96087
2023-01-13T01:26:43.689Z,96087
2023-01-13T01:28:43.678Z,96089
2023-01-13T01:29:43.663Z,96088
2023-01-13T01:30:43.673Z,96083
2023-01-13T01:31:43.744Z,96086
2023-01-13T01:32:43.661Z,96087
2023-01-13T01:34:43.686Z,96085
2023-01-13T01:35:43.703Z,96086
2023-01-13T01:38:43.742Z,96083
2023-01-13T01:39:43.680Z,96083
2023-01-13T01:40:43.705Z,96084
2023-01-13T01:41:43.711Z,96072
2023-01-13T01:42:43.708Z,96072
2023-01-13T01:43:43.680Z,96073
2023-01-13T01:44:43.685Z,96075
2023-01-13T01:46:43.828Z,96074
2023-01-13T01:47:43.712Z,96074
2023-01-13T01:50:43.715Z,96059
2023-01-13T01:51:43.723Z,96054
2023-01-13T01:52:43.733Z,96056
2023-01-13T01:53:43.729Z,96045
2023-01-13T01:54:43.783Z,96052
2023-01-13T01:55:43.727Z,96052
2023-01-13T01:56:43.738Z,96054
2023-01-13T01:57:43.732Z,96052
2023-01-13T01:58:43.741Z,96052
2023-01-13T01:59:43.732Z,96060
2023-01-13T02:00:43.763Z,96052
2023-01-13T02:01:43.873Z,96059
2023-01-13T02:02:43.878Z,96052
2023-01-13T02:03:43.733Z,96052
2023-01-13T02:04:43.770Z,96058
2023-01-13T02:05:43.731Z,96058
2023-01-13T02:06:43.749Z,96057
2023-01-13T02:07:43.792Z,96064
2023-01-13T02:08:43.756Z,96064
2023-01-13T02:10:43.792Z,96086
2023-01-13T02:11:43.777Z,96086
2023-01-13T02:12:43.769Z,96082
2023-01-13T02:13:43.758Z,96078
2023-01-13T02:14:43.763Z,96079
2023-01-13T02:15:43.824Z,96077
2023-01-13T02:16:43.837Z,96077
2023-01-13T02:17:43.783Z,96074
2023-01-13T02:18:43.784Z,96074
2023-01-13T02:19:43.769Z,96073
2023-01-13T02:20:43.804Z,96071
2023-01-13T02:21:43.786Z,96071
2023-01-13T02:22:43.803Z,96068
2023-01-13T02:23:43.838Z,96073
2023-01-13T02:24:43.811Z,96070
2023-01-13T02:25:43.807Z,96068
2023-01-13T02:26:43.795Z,96068
2023-01-13T02:27:43.807Z,96059
2023-01-13T02:28:43.843Z,96059
2023-01-13T02:29:43.798Z,96063
2023-01-13T02:30:43.804Z,96064
2023-01-13T02:31:43.935Z,96065
2023-01-13T02:32:43.809Z,96065
2023-01-13T02:33:43.812Z,96071
2023-01-13T02:34:43.822Z,96074
2023-01-13T02:35:43.816Z,96073
2023-01-13T02:36:43.833Z,96074
2023-01-13T02:37:43.829Z,96072
2023-01-13T02:38:43.842Z,96066
2023-01-13T02:39:43.825Z,96073
2023-01-13T02:40:43.820Z,96066
2023-01-13T02:41:43.833Z,96065
2023-01-13T02:42:43.838Z,96065
2023-01-13T02:43:43.857Z,96066
2023-01-13T02:44:43.890Z,96074
2023-01-13T02:45:43.878Z,96056
2023-01-13T02:46:43.844Z,96063
2023-01-13T02:47:43.857Z,96059
2023-01-13T02:48:43.854Z,96059
2023-01-13T02:49:43.888Z,96060
2023-01-13T02:50:43.852Z,96060
2023-01-13T02:51:43.859Z,96064
2023-01-13T02:52:43.883Z,96064
2023-01-13T02:53:43.866Z,96061
2023-01-13T02:54:43.878Z,96062
2023-01-13T02:55:43.884Z,96062
2023-01-13T02:56:43.870Z,96060
2023-01-13T02:57:43.918Z,96062
2023-01-13T02:58:43.889Z,96062
2023-01-13T02:59:43.923Z,96055
2023-01-13T03:01:44.042Z,96054
2023-01-13T03:02:43.988Z,96054
2023-01-13T03:03:43.925Z,96057
2023-01-13T03:04:43.941Z,96051
2023-01-13T03:05:43.970Z,96051
2023-01-13T03:06:43.945Z,96054
2023-01-13T03:08:43.915Z,96053
2023-01-13T03:09:43.917Z,96051
2023-01-13T03:10:43.965Z,96042
2023-01-13T03:11:43.938Z,96042
2023-01-13T03:12:43.952Z,96048
2023-01-13T03:13:43.935Z,96043
2023-01-13T03:14:44.029Z,96040
2023-01-13T03:15:43.959Z,96039
2023-01-13T03:16:43.965Z,96035
2023-01-13T03:17:43.926Z,96035
2023-01-13T03:18:43.970Z,96036
2023-01-13T03:19:43.922Z,96042
2023-01-13T03:20:43.924Z,96042
2023-01-13T03:21:43.949Z,96043
2023-01-13T03:22:43.967Z,96042
2023-01-13T03:23:43.995Z,96043
2023-01-13T03:24:43.961Z,96043
2023-01-13T03:25:43.962Z,96039
2023-01-13T03:26:44.007Z,96040
2023-01-13T03:27:43.960Z,96046
2023-01-13T03:28:44.006Z,96044
2023-01-13T03:29:44.011Z,96044
2023-01-13T03:30:44.013Z,96035
2023-01-13T03:31:44.038Z,96042
2023-01-13T03:32:43.981Z,96042
2023-01-13T03:33:44.016Z,96037
2023-01-13T03:36:43.982Z,96038
2023-01-13T03:37:44.005Z,96031
2023-01-13T03:38:44.033Z,96029
2023-01-13T03:39:44.066Z,96022
2023-01-13T03:40:43.975Z,96022
2023-01-13T03:41:44.033Z,96019
2023-01-13T03:43:44.016Z,96016
2023-01-13T03:44:44.089Z,96015
2023-01-13T03:45:44.064Z,96013
2023-01-13T03:46:44.046Z,96013
2023-01-13T03:47:44.088Z,96010
2023-01-13T03:48:44.007Z,96012
2023-01-13T03:49:44.037Z,96012
2023-01-13T03:50:44.013Z,96021
2023-01-13T03:52:44.107Z,96022
2023-01-13T03:54:44.064Z,96018
2023-01-13T03:55:44.007Z,96018
2023-01-13T03:56:44.024Z,96023
2023-01-13T03:57:44.090Z,96030
2023-01-13T03:58:44.077Z,96030
2023-01-13T03:59:44.064Z,96028
2023-01-13T04:00:44.068Z,96034
2023-01-13T04:01:44.174Z,96035
2023-01-13T04:02:44.027Z,96032
2023-01-13T04:03:44.141Z,96033
2023-01-13T04:04:44.074Z,96032
2023-01-13T04:05:44.171Z,96025
2023-01-13T04:06:44.085Z,96025
2023-01-13T04:07:44.093Z,96026
2023-01-13T04:08:44.092Z,96028
2023-01-13T04:09:44.092Z,96032
2023-01-13T04:10:44.103Z,96028
2023-01-13T04:11:44.111Z,96028
2023-01-13T04:12:44.097Z,96025
2023-01-13T04:13:44.129Z,96018
2023-01-13T04:14:44.102Z,96017
2023-01-13T04:16:44.132Z,96014
2023-01-13T04:17:44.116Z,96014
2023-01-13T04:18:44.141Z,96006
2023-01-13T04:19:44.116Z,96006
2023-01-13T04:20:44.111Z,96006
2023-01-13T04:21:44.162Z,96006
2023-01-13T04:22:44.147Z,96000
2023-01-13T04:23:44.130Z,96000
2023-01-13T04:24:44.154Z,95998
2023-01-13T04:25:44.144Z,95998
2023-01-13T04:26:44.143Z,96008
2023-01-13T04:27:44.136Z,96008
2023-01-13T04:28:44.131Z,96003
2023-01-13T04:29:44.152Z,96008
2023-01-13T04:30:44.220Z,96000
2023-01-13T04:31:44.123Z,95994
2023-01-13T04:32:44.143Z,95999
2023-01-13T04:33:44.158Z,95999
2023-01-13T04:35:44.129Z,96002
2023-01-13T04:36:44.173Z,95992
2023-01-13T04:37:44.179Z,95992
2023-01-13T04:39:44.167Z,95998
2023-01-13T04:40:44.192Z,96002
2023-01-13T04:41:44.120Z,95995
2023-01-13T04:42:44.222Z,95998
2023-01-13T04:43:44.181Z,95998
2023-01-13T04:44:44.172Z,95993
2023-01-13T04:45:44.170Z,96001
2023-01-13T04:46:44.191Z,95995
2023-01-13T04:47:44.233Z,95996
2023-01-13T04:48:44.196Z,95996
2023-01-13T04:49:44.198Z,95994
2023-01-13T04:50:44.192Z,95994
2023-01-13T04:52:44.149Z,95993
2023-01-13T04:53:44.198Z,95995
2023-01-13T04:54:44.167Z,95997
2023-01-13T04:55:44.263Z,96005
2023-01-13T04:56:44.201Z,96005
2023-01-13T04:57:44.240Z,96008
2023-01-13T04:58:44.186Z,96008
2023-01-13T04:59:44.209Z,96009
2023-01-13T05:01:44.301Z,96010
2023-01-13T05:02:44.228Z,96010
2023-01-13T05:04:44.370Z,96016
2023-01-13T05:05:44.250Z,96017
2023-01-13T05:06:44.228Z,96011
2023-01-13T05:07:44.239Z,96013
2023-01-13T05:09:44.265Z,96025
2023-01-13T05:10:44.254Z,96019
2023-01-13T05:11:44.209Z,96025
2023-01-13T05:12:44.202Z,96023
2023-01-13T05:13:44.250Z,96018
2023-01-13T05:14:44.250Z,96018
2023-01-13T05:15:44.490Z,96020
2023-01-13T05:16:44.256Z,96019
2023-01-13T05:17:44.239Z,96019
2023-01-13T05:18:44.211Z,96004
2023-01-13T05:19:44.260Z,96020
2023-01-13T05:20:44.300Z,96021
2023-01-13T05:21:44.317Z,96020
2023-01-13T05:22:44.277Z,96020
2023-01-13T05:23:44.334Z,96017
2023-01-13T05:24:44.272Z,96020
2023-01-13T05:25:44.706Z,96018
2023-01-13T05:26:44.282Z,96018
2023-01-13T05:27:44.286Z,96018
2023-01-13T05:28:44.264Z,96011
2023-01-13T05:29:44.284Z,96003
2023-01-13T05:30:44.305Z,96007
2023-01-13T05:31:44.270Z,96006
2023-01-13T05:32:44.292Z,96006
2023-01-13T05:33:44.296Z,95998
2023-01-13T05:34:44.341Z,95999
2023-01-13T05:35:44.267Z,96000
2023-01-13T05:36:44.260Z,96002
2023-01-13T05:37:44.273Z,96004
2023-01-13T05:38:44.272Z,96001
2023-01-13T05:39:44.269Z,95998
2023-01-13T05:40:44.341Z,96003
2023-01-13T05:41:44.349Z,96002
2023-01-13T05:42:44.360Z,96002
2023-01-13T05:43:44.284Z,95996
2023-01-13T05:44:44.282Z,95996
2023-01-13T05:45:44.306Z,96004
2023-01-13T05:46:44.373Z,96003
2023-01-13T05:47:44.341Z,95997
2023-01-13T05:48:44.335Z,95997
2023-01-13T05:49:44.301Z,96001
2023-01-13T05:50:44.380Z,96007
2023-01-13T05:51:44.350Z,96005
2023-01-13T05:52:44.345Z,96007
2023-01-13T05:53:44.348Z,96005
2023-01-13T05:54:44.299Z,96004
2023-01-13T05:55:44.358Z,96005
2023-01-13T05:56:44.330Z,96005
2023-01-13T05:57:44.308Z,96000
2023-01-13T05:58:44.376Z,96007
2023-01-13T05:59:44.374Z,95988
2023-01-13T06:00:44.369Z,96005
2023-01-13T06:01:44.345Z,96005
2023-01-13T06:02:44.414Z,96007
2023-01-13T06:03:44.404Z,96008
2023-01-13T06:04:44.474Z,96021
2023-01-13T06:06:44.386Z,96003
2023-01-13T06:07:44.388Z,96003
2023-01-13T06:08:44.420Z,96002
2023-01-13T06:09:44.396Z,95996
2023-01-13T06:10:44.397Z,95996
2023-01-13T06:11:44.393Z,95999
2023-01-13T06:12:44.409Z,95999
2023-01-13T06:13:44.400Z,96005
2023-01-13T06:14:44.418Z,96005
2023-01-13T06:15:44.513Z,96006
2023-01-13T06:16:44.410Z,96004
2023-01-13T06:17:44.403Z,96004
2023-01-13T06:18:44.382Z,95999
2023-01-13T06:19:44.384Z,96007
2023-01-13T06:20:44.435Z,96008
2023-01-13T06:21:44.431Z,96004
2023-01-13T06:22:44.425Z,96006
2023-01-13T06:23:44.395Z,96005
2023-01-13T06:24:44.486Z,95999
2023-01-13T06:25:44.403Z,96005
2023-01-13T06:26:44.383Z,96005
2023-01-13T06:27:44.433Z,96004
2023-01-13T06:28:44.450Z,96004
2023-01-13T06:29:44.476Z,95999
2023-01-13T06:30:44.460Z,95993
2023-01-13T06:31:44.529Z,95998
2023-01-13T06:32:44.462Z,95999
2023-01-13T06:33:44.452Z,95999
2023-01-13T06:35:44.456Z,96006
2023-01-13T06:36:44.470Z,96006
2023-01-13T06:37:44.469Z,96007
2023-01-13T06:38:44.463Z,96005
2023-01-13T06:39:44.480Z,96001
2023-01-13T06:40:44.462Z,95993
2023-01-13T06:41:44.479Z,95995
2023-01-13T06:42:44.440Z,95998
2023-01-13T06:43:44.504Z,95989
2023-01-13T06:44:44.462Z,95997
2023-01-13T06:45:44.519Z,95995
2023-01-13T06:46:44.487Z,95998
2023-01-13T06:47:44.504Z,95998
2023-01-13T06:48:44.502Z,96002
2023-01-13T06:49:44.490Z,95991
2023-01-13T06:50:44.581Z,95997
2023-01-13T06:51:44.523Z,95997
2023-01-13T06:52:44.524Z,95993
2023-01-13T06:53:44.516Z,95993
2023-01-13T06:54:44.521Z,95998
2023-01-13T06:55:44.469Z,95992
2023-01-13T06:56:44.526Z,95991
2023-01-13T06:57:44.464Z,95991
2023-01-13T06:58:44.574Z,95990
2023-01-13T06:59:44.537Z,95988
2023-01-13T07:00:44.628Z,95997
2023-01-13T07:01:44.695Z,95995
2023-01-13T07:02:44.550Z,95990
2023-01-13T07:03:44.555Z,96002
2023-01-13T07:04:44.529Z,95994
2023-01-13T07:05:44.571Z,95991
2023-01-13T07:06:44.595Z,95987
2023-01-13T07:07:44.566Z,95994
2023-01-13T07:08:45.421Z,96003
2023-01-13T07:09:44.539Z,96002
2023-01-13T07:10:44.517Z,96006
2023-01-13T07:11:44.605Z,96001
2023-01-13T07:12:44.586Z,96000
2023-01-13T07:13:44.555Z,96002
2023-01-13T07:14:44.563Z,96000
2023-01-13T07:15:44.535Z,96007
2023-01-13T07:16:44.662Z,96005
2023-01-13T07:17:44.553Z,96005
2023-01-13T07:18:44.570Z,96002
2023-01-13T07:19:44.605Z,95994
2023-01-13T07:20:44.571Z,95991
2023-01-13T07:21:44.586Z,95997
2023-01-13T07:22:44.598Z,95997
2023-01-13T07:23:44.532Z,95995
2023-01-13T07:24:44.598Z,95993
2023-01-13T07:25:44.556Z,95996
2023-01-13T07:26:44.615Z,96000
2023-01-13T07:27:44.606Z,96000
2023-01-13T07:28:44.613Z,96003
2023-01-13T07:29:44.614Z,95996
2023-01-13T07:30:44.576Z,96000
2023-01-13T07:32:44.612Z,96000
2023-01-13T07:33:44.620Z,95998
2023-01-13T07:34:44.612Z,96000
2023-01-13T07:35:44.648Z,96002
2023-01-13T07:36:44.587Z,96008
2023-01-13T07:37:44.582Z,96016
2023-01-13T07:38:44.840Z,96016
2023-01-13T07:39:44.602Z,96017
2023-01-13T07:40:44.666Z,96012
2023-01-13T07:42:44.646Z,96014
2023-01-13T07:43:44.660Z,96014
2023-01-13T07:44:44.655Z,96013
2023-01-13T07:45:44.671Z,96012
2023-01-13T07:46:44.649Z,96017
2023-01-13T07:47:44.599Z,96017
2023-01-13T07:48:44.651Z,96022
2023-01-13T07:49:44.620Z,96022
2023-01-13T07:50:44.630Z,96019
2023-01-13T07:52:44.666Z,96028
2023-01-13T07:53:44.702Z,96031
2023-01-13T07:54:44.677Z,96027
2023-01-13T07:55:44.668Z,96027
2023-01-13T07:56:44.868Z,96025
2023-01-13T07:57:44.676Z,96022
2023-01-13T07:58:44.682Z,96031
2023-01-13T07:59:44.703Z,96026
2023-01-13T08:00:44.709Z,96026
2023-01-13T08:01:44.782Z,96028
2023-01-13T08:03:44.675Z,96022
2023-01-13T08:04:44.679Z,96022
2023-01-13T08:05:44.683Z,96019
2023-01-13T08:06:44.658Z,96019
2023-01-13T08:07:44.655Z,96023
2023-01-13T08:08:44.675Z,96021
2023-01-13T08:09:44.890Z,96018
2023-01-13T08:11:44.704Z,96022
2023-01-13T08:12:53.028Z,96023
2023-01-13T08:13:44.863Z,96025
2023-01-13T08:15:44.704Z,96021
2023-01-13T08:16:44.792Z,96022
2023-01-13T08:17:44.964Z,96028
2023-01-13T08:18:44.703Z,96021
2023-01-13T08:19:44.853Z,96024
2023-01-13T08:20:44.695Z,96026
2023-01-13T08:21:44.870Z,96028
2023-01-13T08:22:44.924Z,96029
2023-01-13T08:24:44.907Z,96024
2023-01-13T08:25:44.853Z,96026
2023-01-13T08:26:44.895Z,96024
2023-01-13T08:27:44.893Z,96028
2023-01-13T08:28:44.892Z,96027
2023-01-13T08:29:44.845Z,96027
2023-01-13T08:30:45.738Z,96025
2023-01-13T08:31:44.921Z,96035
2023-01-13T08:32:44.880Z,96043
2023-01-13T08:33:44.906Z,96045
2023-01-13T08:34:44.932Z,96048
2023-01-13T08:35:44.888Z,96039
2023-01-13T08:36:44.905Z,96039
2023-01-13T08:37:44.925Z,96039
2023-01-13T08:38:44.950Z,96043
2023-01-13T08:39:44.996Z,96038
2023-01-13T08:40:44.924Z,96038
2023-01-13T08:41:44.881Z,96034
2023-01-13T08:42:47.038Z,96034
2023-01-13T08:43:44.983Z,96031
2023-01-13T08:44:44.993Z,96035
2023-01-13T08:45:45.150Z,96034
2023-01-13T08:46:44.962Z,96036
2023-01-13T08:47:44.977Z,96023
2023-01-13T08:48:44.982Z,96033
2023-01-13T08:49:44.943Z,96040
2023-01-13T08:50:44.930Z,96040
2023-01-13T08:51:45.061Z,96055
2023-01-13T08:52:44.970Z,96047
2023-01-13T08:54:44.990Z,96048
2023-01-13T08:55:45.005Z,96061
2023-01-13T08:56:45.093Z,96057
2023-01-13T08:57:44.990Z,96061
2023-01-13T08:58:45.008Z,96057
2023-01-13T08:59:44.986Z,96062
2023-01-13T09:00:45.015Z,96060
2023-01-13T09:02:44.985Z,96072
2023-01-13T09:03:45.008Z,96072
2023-01-13T09:04:45.047Z,96068
2023-01-13T09:05:45.008Z,96072
2023-01-13T09:06:44.968Z,96067
2023-01-13T09:07:45.007Z,96065
2023-01-13T09:08:45.029Z,96075
2023-01-13T09:09:44.974Z,96071
2023-01-13T09:10:44.981Z,96075
2023-01-13T09:11:45.003Z,96067
2023-01-13T09:12:44.991Z,96060
2023-01-13T09:13:44.985Z,96063
2023-01-13T09:14:45.012Z,96055
2023-01-13T09:15:45.042Z,96050
2023-01-13T09:16:44.975Z,96057
2023-01-13T09:17:45.005Z,96060
2023-01-13T09:18:45.042Z,96053
2023-01-13T09:19:45.020Z,96047
2023-01-13T09:20:44.953Z,96059
2023-01-13T09:21:45.012Z,96064
2023-01-13T09:22:45.003Z,96065
2023-01-13T09:23:45.018Z,96068
2023-01-13T09:24:44.986Z,96067
2023-01-13T09:25:44.966Z,96073
2023-01-13T09:26:44.987Z,96073
2023-01-13T09:27:44.993Z,96066
2023-01-13T09:28:45.040Z,96077
2023-01-13T09:29:44.998Z,96074
2023-01-13T09:30:45.065Z,96063
2023-01-13T09:31:44.960Z,96056
2023-01-13T09:32:45.020Z,96059
2023-01-13T09:33:45.012Z,96069
2023-01-13T09:34:45.023Z,96070
2023-01-13T09:35:44.963Z,96077
2023-01-13T09:36:44.983Z,96085
2023-01-13T09:37:44.963Z,96089
2023-01-13T09:38:44.999Z,96091
2023-01-13T09:39:44.977Z,96088
2023-01-13T09:40:45.017Z,96096
2023-01-13T09:41:44.963Z,96084
2023-01-13T09:42:44.995Z,96070
2023-01-13T09:43:45.021Z,96074
2023-01-13T09:44:45.009Z,96076
2023-01-13T09:45:45.023Z,96059
2023-01-13T09:46:45.093Z,96079
2023-01-13T09:47:45.034Z,96068
2023-01-13T09:48:45.016Z,96078
2023-01-13T09:49:44.997Z,96076
2023-01-13T09:50:45.017Z,96077
2023-01-13T09:52:45.010Z,96077
2023-01-13T09:53:44.992Z,96064
2023-01-13T09:54:44.984Z,96077
2023-01-13T09:55:45.008Z,96077
2023-01-13T09:56:45.027Z,96079
2023-01-13T09:57:45.028Z,96091
2023-01-13T09:58:45.022Z,96094
2023-01-13T09:59:45.020Z,96081
2023-01-13T10:00:44.983Z,96085
2023-01-13T10:01:44.955Z,96077
2023-01-13T10:02:44.975Z,96072
2023-01-13T10:03:45.075Z,96062
2023-01-13T10:04:45.042Z,96065
2023-01-13T10:05:45.014Z,96056
2023-01-13T10:06:45.036Z,96070
2023-01-13T10:07:45.048Z,96067
2023-01-13T10:08:45.045Z,96081
2023-01-13T10:09:45.045Z,96064
2023-01-13T10:10:44.999Z,96066
2023-01-13T10:11:45.011Z,96076
2023-01-13T10:12:45.031Z,96072
2023-01-13T10:13:45.019Z,96073
2023-01-13T10:14:44.979Z,96074
2023-01-13T10:15:45.019Z,96087
2023-01-13T10:16:45.010Z,96081
2023-01-13T10:17:45.222Z,96079
2023-01-13T10:18:44.982Z,96080
2023-01-13T10:19:45.024Z,96078
2023-01-13T10:20:45.080Z,96080
2023-01-13T10:21:45.028Z,96074
2023-01-13T10:22:45.047Z,96078
2023-01-13T10:23:45.053Z,96082
2023-01-13T10:24:45.061Z,96080
2023-01-13T10:25:45.016Z,96083
2023-01-13T10:26:45.014Z,96088
2023-01-13T10:27:45.045Z,96092
2023-01-13T10:28:45.060Z,96089
2023-01-13T10:29:45.008Z,96096
2023-01-13T10:30:45.002Z,96095
2023-01-13T10:31:45.729Z,96095
2023-01-13T10:32:45.010Z,96103
2023-01-13T10:33:45.074Z,96101
2023-01-13T10:34:45.043Z,96112
2023-01-13T10:35:45.039Z,96106
2023-01-13T10:36:45.102Z,96117
2023-01-13T10:37:45.016Z,96107
2023-01-13T10:38:45.021Z,96106
2023-01-13T10:39:45.048Z,96099
2023-01-13T10:40:45.085Z,96104
2023-01-13T10:41:45.129Z,96105
2023-01-13T10:42:45.041Z,96101
2023-01-13T10:43:45.044Z,96102
2023-01-13T10:44:45.076Z,96108
2023-01-13T10:45:45.090Z,96103
2023-01-13T10:46:45.159Z,96099
2023-01-13T10:47:45.092Z,96101
2023-01-13T10:48:45.082Z,96100
2023-01-13T10:49:45.095Z,96104
2023-01-13T10:50:45.058Z,96102
2023-01-13T10:51:45.093Z,96097
2023-01-13T10:52:45.057Z,96106
2023-01-13T10:53:45.110Z,96105
2023-01-13T10:54:45.142Z,96102
2023-01-13T10:55:45.058Z,96109
2023-01-13T10:56:45.082Z,96116
2023-01-13T10:57:45.101Z,96114
2023-01-13T10:58:45.079Z,96109
2023-01-13T10:59:45.094Z,96111
2023-01-13T11:00:45.092Z,96111
2023-01-13T11:01:45.247Z,96114
2023-01-13T11:02:45.171Z,96112
2023-01-13T11:03:45.092Z,96111
2023-01-13T11:04:45.171Z,96120
2023-01-13T11:05:45.134Z,96123
2023-01-13T11:06:45.116Z,96113
2023-01-13T11:07:45.171Z,96116
2023-01-13T11:08:45.230Z,96124
2023-01-13T11:09:45.103Z,96121
2023-01-13T11:10:45.159Z,96131
2023-01-13T11:11:45.142Z,96136
2023-01-13T11:12:45.169Z,96127
2023-01-13T11:13:45.134Z,96127
2023-01-13T11:14:45.097Z,96135
2023-01-13T11:15:45.943Z,96141
2023-01-13T11:16:52.880Z,96137
2023-01-13T11:17:45.119Z,96146
2023-01-13T11:18:45.151Z,96143
2023-01-13T11:19:45.163Z,96143
2023-01-13T11:20:45.185Z,96142
2023-01-13T11:21:45.160Z,96145
2023-01-13T11:22:45.181Z,96150
2023-01-13T11:23:45.218Z,96143
2023-01-13T11:24:45.180Z,96143
2023-01-13T11:26:45.144Z,96145
2023-01-13T11:27:45.186Z,96148
2023-01-13T11:28:45.248Z,96150
2023-01-13T11:30:45.170Z,96149
2023-01-13T11:31:45.282Z,96164
2023-01-13T11:32:45.177Z,96154
2023-01-13T11:33:45.188Z,96146
2023-01-13T11:34:45.174Z,96162
2023-01-13T11:35:45.154Z,96161
2023-01-13T11:36:45.227Z,96151
2023-01-13T11:37:45.220Z,96146
2023-01-13T11:38:45.232Z,96137
2023-01-13T11:39:45.221Z,96135
2023-01-13T11:40:45.266Z,96151
2023-01-13T11:41:45.239Z,96136
2023-01-13T11:42:45.250Z,96142
2023-01-13T11:43:45.227Z,96142
2023-01-13T11:44:45.274Z,96155
2023-01-13T11:45:45.251Z,96143
2023-01-13T11:46:45.260Z,96144
2023-01-13T11:47:45.218Z,96155
2023-01-13T11:48:45.217Z,96157
2023-01-13T11:49:45.233Z,96154
2023-01-13T11:50:45.260Z,96152
2023-01-13T11:51:45.269Z,96153
2023-01-13T11:52:45.210Z,96150
2023-01-13T11:53:45.212Z,96155
2023-01-13T11:54:45.261Z,96148
2023-01-13T11:55:45.216Z,96153
2023-01-13T11:56:45.225Z,96143
2023-01-13T11:57:45.267Z,96145
2023-01-13T11:58:50.655Z,96143
2023-01-13T11:59:45.264Z,96140
2023-01-13T12:00:45.262Z,96140
2023-01-13T12:01:45.281Z,96141
2023-01-13T12:02:45.243Z,96139
2023-01-13T12:03:45.313Z,96145
2023-01-13T12:04:45.245Z,96137
2023-01-13T12:05:45.269Z,96132
2023-01-13T12:06:45.251Z,96133
2023-01-13T12:07:45.255Z,96134
2023-01-13T12:08:45.256Z,96131
2023-01-13T12:09:45.287Z,96131
2023-01-13T12:10:45.298Z,96118
2023-01-13T12:11:45.249Z,96114
2023-01-13T12:12:45.316Z,96109
2023-01-13T12:13:45.341Z,96111
2023-01-13T12:14:45.256Z,96115
2023-01-13T12:15:45.261Z,96123
2023-01-13T12:16:45.261Z,96123
2023-01-13T12:17:45.312Z,96119
2023-01-13T12:18:45.338Z,96109
2023-01-13T12:19:45.305Z,96109
2023-01-13T12:20:45.327Z,96115
2023-01-13T12:21:45.321Z,96117
2023-01-13T12:22:45.283Z,96117
2023-01-13T12:23:45.328Z,96121
2023-01-13T12:24:45.292Z,96117
2023-01-13T12:25:45.306Z,96122
2023-01-13T12:26:45.341Z,96121
2023-01-13T12:27:47.307Z,96121
2023-01-13T12:28:45.428Z,96134
2023-01-13T12:29:45.302Z,96128
2023-01-13T12:30:45.327Z,96128
2023-01-13T12:31:45.411Z,96137
2023-01-13T12:32:45.360Z,96142
2023-01-13T12:33:45.318Z,96141
2023-01-13T12:34:45.341Z,96141
2023-01-13T12:35:45.343Z,96141
2023-01-13T12:36:45.352Z,96134
2023-01-13T12:37:45.410Z,96134
2023-01-13T12:38:45.326Z,96127
2023-01-13T12:39:45.351Z,96123
2023-01-13T12:40:45.327Z,96123
2023-01-13T12:41:45.348Z,96123
2023-01-13T12:42:45.325Z,96126
2023-01-13T12:43:45.356Z,96132
2023-01-13T12:44:45.343Z,96130
2023-01-13T12:45:45.384Z,96132
2023-01-13T12:46:45.805Z,96136
2023-01-13T12:47:45.431Z,96134
2023-01-13T12:48:45.410Z,96144
2023-01-13T12:49:45.396Z,96147
2023-01-13T12:50:45.387Z,96147
2023-01-13T12:51:45.411Z,96148
2023-01-13T12:52:45.450Z,96141
2023-01-13T12:53:45.411Z,96145
2023-01-13T12:54:45.403Z,96154
2023-01-13T12:55:45.430Z,96144
2023-01-13T12:56:45.376Z,96154
2023-01-13T12:57:45.418Z,96144
2023-01-13T12:58:45.424Z,96145
2023-01-13T12:59:45.421Z,96148
2023-01-13T13:00:45.569Z,96144
2023-01-13T13:01:45.560Z,96146
2023-01-13T13:02:45.422Z,96146
2023-01-13T13:03:45.385Z,96147
2023-01-13T13:04:48.481Z,96147
2023-01-13T13:05:45.426Z,96140
2023-01-13T13:06:45.392Z,96145
2023-01-13T13:07:45.377Z,96151
2023-01-13T13:08:45.425Z,96144
2023-01-13T13:09:45.405Z,96144
2023-01-13T13:10:45.442Z,96137
2023-01-13T13:11:45.442Z,96137
2023-01-13T13:12:45.429Z,96145
2023-01-13T13:16:45.512Z,96152
2023-01-13T13:18:45.512Z,96151
2023-01-13T13:19:45.460Z,96151
2023-01-13T13:20:45.460Z,96135
2023-01-13T13:21:45.494Z,96142
2023-01-13T13:23:45.499Z,96141
2023-01-13T13:24:45.492Z,96141
2023-01-13T13:25:45.471Z,96143
2023-01-13T13:26:45.514Z,96140
2023-01-13T13:28:45.487Z,96135
2023-01-13T13:29:45.559Z,96144
2023-01-13T13:30:45.484Z,96145
2023-01-13T13:31:45.491Z,96144
2023-01-13T13:32:45.487Z,96146
2023-01-13T13:33:45.486Z,96139
2023-01-13T13:36:45.514Z,96153
2023-01-13T13:37:45.536Z,96146
2023-01-13T13:38:45.482Z,96149
2023-01-13T13:39:45.497Z,96147